sensor_id;sensor_type;location;lat;lon;timestamp;temperature;humidity
5806;DHT22;2929;50.810;8.342;2023-03-01T00:02:21;-1.20;99.90
5806;DHT22;2929;50.810;8.342;2023-03-01T00:04:48;-1.20;99.90
5806;DHT22;2929;50.810;8.342;2023-03-01T00:07:15;-1.10;99.90
5806;DHT22;2929;50.810;8.342;2023-03-01T00:09:43;-1.10;99.90
5806;DHT22;2929;50.810;8.342;2023-03-01T00:12:12;-1.10;99.90
5806;DHT22;2929;50.810;8.342;2023-03-01T00:14:40;-1.10;99.90
5806;DHT22;2929;50.810;8.342;2023-03-01T00:17:07;-1.20;99.90
5806;DHT22;2929;50.810;8.342;2023-03-01T00:19:34;-1.30;99.90
5806;DHT22;2929;50.810;8.342;2023-03-01T00:22:02;-1.30;99.90
5806;DHT22;2929;50.810;8.342;2023-03-01T00:24:29;-1.30;99.90
5806;DHT22;2929;50.810;8.342;2023-03-01T00:26:56;-1.30;99.90
5806;DHT22;2929;50.810;8.342;2023-03-01T00:29:25;-1.30;99.90
5806;DHT22;2929;50.810;8.342;2023-03-01T00:31:52;-1.30;99.90
5806;DHT22;2929;50.810;8.342;2023-03-01T00:34:19;-1.40;99.90
5806;DHT22;2929;50.810;8.342;2023-03-01T00:36:46;-1.40;99.90
5806;DHT22;2929;50.810;8.342;2023-03-01T00:39:15;-1.40;99.90
5806;DHT22;2929;50.810;8.342;2023-03-01T00:41:42;-1.40;99.90
5806;DHT22;2929;50.810;8.342;2023-03-01T00:44:10;-1.50;99.90
5806;DHT22;2929;50.810;8.342;2023-03-01T00:46:38;-1.70;99.90
5806;DHT22;2929;50.810;8.342;2023-03-01T00:49:05;-1.80;99.90
5806;DHT22;2929;50.810;8.342;2023-03-01T00:51:33;-1.80;99.90
5806;DHT22;2929;50.810;8.342;2023-03-01T00:54:01;-1.80;99.90
5806;DHT22;2929;50.810;8.342;2023-03-01T00:56:29;-1.80;99.90
5806;DHT22;2929;50.810;8.342;2023-03-01T00:58:56;-1.80;99.90
5806;DHT22;2929;50.810;8.342;2023-03-01T01:01:26;-1.80;99.90
5806;DHT22;2929;50.810;8.342;2023-03-01T01:03:58;-1.90;99.90
5806;DHT22;2929;50.810;8.342;2023-03-01T01:06:27;-1.90;99.90
5806;DHT22;2929;50.810;8.342;2023-03-01T01:08:55;-1.90;99.90
5806;DHT22;2929;50.810;8.342;2023-03-01T01:11:24;-2.00;99.90
5806;DHT22;2929;50.810;8.342;2023-03-01T01:13:52;-2.10;99.90
5806;DHT22;2929;50.810;8.342;2023-03-01T01:16:20;-2.20;99.90
5806;DHT22;2929;50.810;8.342;2023-03-01T01:18:48;-2.20;99.90
5806;DHT22;2929;50.810;8.342;2023-03-01T01:21:20;-2.20;99.90
5806;DHT22;2929;50.810;8.342;2023-03-01T01:23:47;-2.10;99.90
5806;DHT22;2929;50.810;8.342;2023-03-01T01:26:16;-2.10;99.90
5806;DHT22;2929;50.810;8.342;2023-03-01T01:28:44;-2.10;99.90
5806;DHT22;2929;50.810;8.342;2023-03-01T01:31:11;-2.20;99.90
5806;DHT22;2929;50.810;8.342;2023-03-01T01:33:39;-2.20;99.90
5806;DHT22;2929;50.810;8.342;2023-03-01T01:36:07;-2.30;99.90
5806;DHT22;2929;50.810;8.342;2023-03-01T01:38:37;-2.50;99.90
5806;DHT22;2929;50.810;8.342;2023-03-01T01:41:05;-2.50;99.90
5806;DHT22;2929;50.810;8.342;2023-03-01T01:43:35;-2.50;99.90
5806;DHT22;2929;50.810;8.342;2023-03-01T01:46:04;-2.60;99.90
5806;DHT22;2929;50.810;8.342;2023-03-01T01:48:37;-2.60;99.90
5806;DHT22;2929;50.810;8.342;2023-03-01T01:51:11;-2.60;99.90
5806;DHT22;2929;50.810;8.342;2023-03-01T01:53:42;-2.50;99.90
5806;DHT22;2929;50.810;8.342;2023-03-01T01:56:12;-2.50;99.90
5806;DHT22;2929;50.810;8.342;2023-03-01T01:58:42;-2.40;99.90
5806;DHT22;2929;50.810;8.342;2023-03-01T02:01:10;-2.50;99.90
5806;DHT22;2929;50.810;8.342;2023-03-01T02:03:39;-2.40;99.90
5806;DHT22;2929;50.810;8.342;2023-03-01T02:06:13;-2.50;99.90
5806;DHT22;2929;50.810;8.342;2023-03-01T02:08:44;-2.60;99.90
5806;DHT22;2929;50.810;8.342;2023-03-01T02:11:13;-2.60;99.90
5806;DHT22;2929;50.810;8.342;2023-03-01T02:13:41;-2.80;99.90
5806;DHT22;2929;50.810;8.342;2023-03-01T02:16:10;-2.90;99.90
5806;DHT22;2929;50.810;8.342;2023-03-01T02:18:38;-3.10;99.90
5806;DHT22;2929;50.810;8.342;2023-03-01T02:21:19;-3.20;99.90
5806;DHT22;2929;50.810;8.342;2023-03-01T02:23:53;-3.20;99.90
5806;DHT22;2929;50.810;8.342;2023-03-01T02:26:27;-3.30;99.90
5806;DHT22;2929;50.810;8.342;2023-03-01T02:29:00;-3.40;99.90
5806;DHT22;2929;50.810;8.342;2023-03-01T02:31:27;-3.40;99.90
5806;DHT22;2929;50.810;8.342;2023-03-01T02:34:11;-3.30;99.90
5806;DHT22;2929;50.810;8.342;2023-03-01T02:36:40;-3.30;99.90
5806;DHT22;2929;50.810;8.342;2023-03-01T02:39:14;-3.30;99.90
5806;DHT22;2929;50.810;8.342;2023-03-01T02:41:46;-3.40;99.90
5806;DHT22;2929;50.810;8.342;2023-03-01T02:44:15;-3.40;99.90
5806;DHT22;2929;50.810;8.342;2023-03-01T02:46:44;-3.40;99.90
5806;DHT22;2929;50.810;8.342;2023-03-01T02:49:23;-3.50;99.90
5806;DHT22;2929;50.810;8.342;2023-03-01T02:52:16;-3.50;99.90
5806;DHT22;2929;50.810;8.342;2023-03-01T02:54:48;-3.60;99.90
5806;DHT22;2929;50.810;8.342;2023-03-01T02:57:18;-3.70;99.90
5806;DHT22;2929;50.810;8.342;2023-03-01T02:59:50;-3.70;99.90
5806;DHT22;2929;50.810;8.342;2023-03-01T03:02:20;-3.90;99.90
5806;DHT22;2929;50.810;8.342;2023-03-01T03:05:04;-3.80;99.90
5806;DHT22;2929;50.810;8.342;2023-03-01T03:07:35;-3.90;99.90
5806;DHT22;2929;50.810;8.342;2023-03-01T03:10:04;-3.90;99.90
5806;DHT22;2929;50.810;8.342;2023-03-01T03:12:33;-3.90;99.90
5806;DHT22;2929;50.810;8.342;2023-03-01T03:15:01;-3.90;99.90
5806;DHT22;2929;50.810;8.342;2023-03-01T03:17:34;-3.90;99.90
5806;DHT22;2929;50.810;8.342;2023-03-01T03:20:02;-3.90;99.90
5806;DHT22;2929;50.810;8.342;2023-03-01T03:22:30;-3.90;99.90
5806;DHT22;2929;50.810;8.342;2023-03-01T03:24:57;-3.80;99.90
5806;DHT22;2929;50.810;8.342;2023-03-01T03:27:24;-3.80;99.90
5806;DHT22;2929;50.810;8.342;2023-03-01T03:29:51;-3.80;99.90
5806;DHT22;2929;50.810;8.342;2023-03-01T03:32:19;-3.70;99.90
5806;DHT22;2929;50.810;8.342;2023-03-01T03:34:46;-3.70;99.90
5806;DHT22;2929;50.810;8.342;2023-03-01T03:37:14;-3.80;99.90
5806;DHT22;2929;50.810;8.342;2023-03-01T03:39:55;-3.90;99.90
5806;DHT22;2929;50.810;8.342;2023-03-01T03:42:22;-3.90;99.90
5806;DHT22;2929;50.810;8.342;2023-03-01T03:44:49;-4.10;99.90
5806;DHT22;2929;50.810;8.342;2023-03-01T03:47:16;-4.00;99.90
5806;DHT22;2929;50.810;8.342;2023-03-01T03:49:44;-4.10;99.90
5806;DHT22;2929;50.810;8.342;2023-03-01T03:52:11;-4.10;99.90
5806;DHT22;2929;50.810;8.342;2023-03-01T03:54:40;-4.00;99.90
5806;DHT22;2929;50.810;8.342;2023-03-01T03:57:07;-4.00;99.90
5806;DHT22;2929;50.810;8.342;2023-03-01T03:59:34;-4.00;99.90
5806;DHT22;2929;50.810;8.342;2023-03-01T04:02:01;-4.00;99.90
5806;DHT22;2929;50.810;8.342;2023-03-01T04:04:28;-4.00;99.90
5806;DHT22;2929;50.810;8.342;2023-03-01T04:06:56;-3.90;99.90
5806;DHT22;2929;50.810;8.342;2023-03-01T04:09:23;-4.00;99.90
5806;DHT22;2929;50.810;8.342;2023-03-01T04:11:50;-3.90;99.90
5806;DHT22;2929;50.810;8.342;2023-03-01T04:14:17;-4.00;99.90
5806;DHT22;2929;50.810;8.342;2023-03-01T04:16:44;-4.00;99.90
5806;DHT22;2929;50.810;8.342;2023-03-01T04:19:11;-4.00;99.90
5806;DHT22;2929;50.810;8.342;2023-03-01T04:21:40;-4.00;99.90
5806;DHT22;2929;50.810;8.342;2023-03-01T04:24:09;-4.10;99.90
5806;DHT22;2929;50.810;8.342;2023-03-01T04:26:36;-4.20;99.90
5806;DHT22;2929;50.810;8.342;2023-03-01T04:29:03;-4.30;99.90
5806;DHT22;2929;50.810;8.342;2023-03-01T04:31:29;-4.40;99.90
5806;DHT22;2929;50.810;8.342;2023-03-01T04:33:56;-4.40;99.90
5806;DHT22;2929;50.810;8.342;2023-03-01T04:36:25;-4.40;99.90
5806;DHT22;2929;50.810;8.342;2023-03-01T04:38:53;-4.40;99.90
5806;DHT22;2929;50.810;8.342;2023-03-01T04:41:23;-4.50;99.90
5806;DHT22;2929;50.810;8.342;2023-03-01T04:43:50;-4.50;99.90
5806;DHT22;2929;50.810;8.342;2023-03-01T04:46:19;-4.40;99.90
5806;DHT22;2929;50.810;8.342;2023-03-01T04:48:46;-4.40;99.90
5806;DHT22;2929;50.810;8.342;2023-03-01T04:51:14;-4.40;99.90
5806;DHT22;2929;50.810;8.342;2023-03-01T04:53:42;-4.50;99.90
5806;DHT22;2929;50.810;8.342;2023-03-01T04:56:10;-4.40;99.90
5806;DHT22;2929;50.810;8.342;2023-03-01T04:58:38;-4.40;99.90
5806;DHT22;2929;50.810;8.342;2023-03-01T05:01:09;-4.40;99.90
5806;DHT22;2929;50.810;8.342;2023-03-01T05:03:41;-4.50;99.90
5806;DHT22;2929;50.810;8.342;2023-03-01T05:06:08;-4.50;99.90
5806;DHT22;2929;50.810;8.342;2023-03-01T05:08:36;-4.50;99.90
5806;DHT22;2929;50.810;8.342;2023-03-01T05:11:04;-4.60;99.90
5806;DHT22;2929;50.810;8.342;2023-03-01T05:13:34;-4.60;99.90
5806;DHT22;2929;50.810;8.342;2023-03-01T05:16:04;-4.50;99.90
5806;DHT22;2929;50.810;8.342;2023-03-01T05:18:33;-4.60;99.90
5806;DHT22;2929;50.810;8.342;2023-03-01T05:21:04;-4.70;99.90
5806;DHT22;2929;50.810;8.342;2023-03-01T05:23:31;-4.60;99.90
5806;DHT22;2929;50.810;8.342;2023-03-01T05:25:59;-4.70;99.90
5806;DHT22;2929;50.810;8.342;2023-03-01T05:28:27;-4.70;99.90
5806;DHT22;2929;50.810;8.342;2023-03-01T05:30:55;-4.70;99.90
5806;DHT22;2929;50.810;8.342;2023-03-01T05:33:24;-4.70;99.90
5806;DHT22;2929;50.810;8.342;2023-03-01T05:35:52;-4.70;99.90
5806;DHT22;2929;50.810;8.342;2023-03-01T05:38:38;-4.60;99.90
5806;DHT22;2929;50.810;8.342;2023-03-01T05:41:05;-4.70;99.90
5806;DHT22;2929;50.810;8.342;2023-03-01T05:43:40;-4.70;99.90
5806;DHT22;2929;50.810;8.342;2023-03-01T05:46:09;-4.80;99.90
5806;DHT22;2929;50.810;8.342;2023-03-01T05:48:39;-4.70;99.90
5806;DHT22;2929;50.810;8.342;2023-03-01T05:51:06;-4.70;99.90
5806;DHT22;2929;50.810;8.342;2023-03-01T05:53:33;-4.70;99.90
5806;DHT22;2929;50.810;8.342;2023-03-01T05:56:03;-4.70;99.90
5806;DHT22;2929;50.810;8.342;2023-03-01T05:58:30;-4.60;99.90
5806;DHT22;2929;50.810;8.342;2023-03-01T06:00:57;-4.60;99.90
5806;DHT22;2929;50.810;8.342;2023-03-01T06:03:24;-4.70;99.90
5806;DHT22;2929;50.810;8.342;2023-03-01T06:05:57;-4.70;99.90
5806;DHT22;2929;50.810;8.342;2023-03-01T06:08:24;-4.80;99.90
5806;DHT22;2929;50.810;8.342;2023-03-01T06:10:52;-4.80;99.90
5806;DHT22;2929;50.810;8.342;2023-03-01T06:13:19;-4.80;99.90
5806;DHT22;2929;50.810;8.342;2023-03-01T06:15:46;-4.80;99.90
5806;DHT22;2929;50.810;8.342;2023-03-01T06:18:13;-4.70;99.90
5806;DHT22;2929;50.810;8.342;2023-03-01T06:20:41;-4.80;99.90
5806;DHT22;2929;50.810;8.342;2023-03-01T06:23:09;-4.70;99.90
5806;DHT22;2929;50.810;8.342;2023-03-01T06:25:37;-4.70;99.90
5806;DHT22;2929;50.810;8.342;2023-03-01T06:28:04;-4.60;99.90
5806;DHT22;2929;50.810;8.342;2023-03-01T06:30:31;-4.50;99.90
5806;DHT22;2929;50.810;8.342;2023-03-01T06:32:58;-4.50;99.90
5806;DHT22;2929;50.810;8.342;2023-03-01T06:35:27;-4.40;99.90
5806;DHT22;2929;50.810;8.342;2023-03-01T06:37:55;-4.40;99.90
5806;DHT22;2929;50.810;8.342;2023-03-01T06:40:24;-4.30;99.90
5806;DHT22;2929;50.810;8.342;2023-03-01T06:46:39;-4.20;99.90
5806;DHT22;2929;50.810;8.342;2023-03-01T06:49:06;-4.20;99.90
5806;DHT22;2929;50.810;8.342;2023-03-01T06:51:35;-4.20;99.90
5806;DHT22;2929;50.810;8.342;2023-03-01T06:54:03;-4.10;99.90
5806;DHT22;2929;50.810;8.342;2023-03-01T07:04:07;-3.80;99.90
5806;DHT22;2929;50.810;8.342;2023-03-01T07:06:34;-3.70;99.90
5806;DHT22;2929;50.810;8.342;2023-03-01T07:09:01;-3.60;99.90
5806;DHT22;2929;50.810;8.342;2023-03-01T07:11:28;-3.50;99.90
5806;DHT22;2929;50.810;8.342;2023-03-01T07:13:55;-3.40;99.90
5806;DHT22;2929;50.810;8.342;2023-03-01T07:16:22;-3.30;99.90
5806;DHT22;2929;50.810;8.342;2023-03-01T07:18:49;-3.20;99.90
5806;DHT22;2929;50.810;8.342;2023-03-01T07:21:18;-2.90;99.90
5806;DHT22;2929;50.810;8.342;2023-03-01T07:23:47;-2.80;99.90
5806;DHT22;2929;50.810;8.342;2023-03-01T07:26:14;-2.70;99.90
5806;DHT22;2929;50.810;8.342;2023-03-01T07:28:41;-2.70;99.90
5806;DHT22;2929;50.810;8.342;2023-03-01T07:31:08;-2.50;99.90
5806;DHT22;2929;50.810;8.342;2023-03-01T07:33:35;-2.40;99.90
5806;DHT22;2929;50.810;8.342;2023-03-01T07:36:04;-2.10;99.90
5806;DHT22;2929;50.810;8.342;2023-03-01T07:38:33;-2.10;99.90
5806;DHT22;2929;50.810;8.342;2023-03-01T07:41:01;-2.00;99.90
5806;DHT22;2929;50.810;8.342;2023-03-01T07:43:29;-1.90;99.90
5806;DHT22;2929;50.810;8.342;2023-03-01T07:45:58;-1.80;99.90
5806;DHT22;2929;50.810;8.342;2023-03-01T07:48:26;-1.60;99.90
5806;DHT22;2929;50.810;8.342;2023-03-01T07:50:53;-1.40;99.90
5806;DHT22;2929;50.810;8.342;2023-03-01T07:53:20;-1.40;99.90
5806;DHT22;2929;50.810;8.342;2023-03-01T07:55:48;-1.30;99.90
5806;DHT22;2929;50.810;8.342;2023-03-01T07:58:15;-1.30;99.90
5806;DHT22;2929;50.810;8.342;2023-03-01T08:00:42;-1.20;99.90
5806;DHT22;2929;50.810;8.342;2023-03-01T08:03:09;-1.10;99.90
5806;DHT22;2929;50.810;8.342;2023-03-01T08:05:36;-1.00;99.90
5806;DHT22;2929;50.810;8.342;2023-03-01T08:08:04;-1.00;99.90
5806;DHT22;2929;50.810;8.342;2023-03-01T08:10:31;-0.90;99.90
5806;DHT22;2929;50.810;8.342;2023-03-01T08:13:00;-0.80;99.90
5806;DHT22;2929;50.810;8.342;2023-03-01T08:15:27;-0.70;99.90
5806;DHT22;2929;50.810;8.342;2023-03-01T08:17:54;-0.70;99.90
5806;DHT22;2929;50.810;8.342;2023-03-01T08:20:21;-0.60;99.90
5806;DHT22;2929;50.810;8.342;2023-03-01T08:22:48;-0.50;99.90
5806;DHT22;2929;50.810;8.342;2023-03-01T08:25:15;-0.50;99.90
5806;DHT22;2929;50.810;8.342;2023-03-01T08:27:42;-0.50;99.90
5806;DHT22;2929;50.810;8.342;2023-03-01T08:30:12;-0.50;99.90
5806;DHT22;2929;50.810;8.342;2023-03-01T08:32:39;-0.40;99.90
5806;DHT22;2929;50.810;8.342;2023-03-01T08:35:07;-0.40;99.90
5806;DHT22;2929;50.810;8.342;2023-03-01T08:37:34;-0.30;99.90
5806;DHT22;2929;50.810;8.342;2023-03-01T08:40:01;-0.20;99.90
5806;DHT22;2929;50.810;8.342;2023-03-01T08:42:29;-0.20;99.90
5806;DHT22;2929;50.810;8.342;2023-03-01T08:44:56;-0.20;99.90
5806;DHT22;2929;50.810;8.342;2023-03-01T08:47:25;-0.10;99.90
5806;DHT22;2929;50.810;8.342;2023-03-01T08:49:52;-0.10;99.90
5806;DHT22;2929;50.810;8.342;2023-03-01T08:52:19;-0.10;99.90
5806;DHT22;2929;50.810;8.342;2023-03-01T08:54:47;0.00;99.90
5806;DHT22;2929;50.810;8.342;2023-03-01T08:57:14;0.00;99.90
5806;DHT22;2929;50.810;8.342;2023-03-01T08:59:41;0.10;99.90
5806;DHT22;2929;50.810;8.342;2023-03-01T09:02:13;0.20;99.90
5806;DHT22;2929;50.810;8.342;2023-03-01T09:04:41;0.30;99.90
5806;DHT22;2929;50.810;8.342;2023-03-01T09:07:09;0.40;99.90
5806;DHT22;2929;50.810;8.342;2023-03-01T09:09:36;0.40;99.90
5806;DHT22;2929;50.810;8.342;2023-03-01T09:12:04;0.50;99.90
5806;DHT22;2929;50.810;8.342;2023-03-01T09:14:31;0.60;99.90
5806;DHT22;2929;50.810;8.342;2023-03-01T09:16:59;0.60;99.90
5806;DHT22;2929;50.810;8.342;2023-03-01T09:19:28;0.60;99.90
5806;DHT22;2929;50.810;8.342;2023-03-01T09:21:57;0.70;99.90
5806;DHT22;2929;50.810;8.342;2023-03-01T09:24:24;0.80;99.90
5806;DHT22;2929;50.810;8.342;2023-03-01T09:26:54;0.80;99.90
5806;DHT22;2929;50.810;8.342;2023-03-01T09:29:21;0.80;99.90
5806;DHT22;2929;50.810;8.342;2023-03-01T09:31:48;0.80;99.90
5806;DHT22;2929;50.810;8.342;2023-03-01T09:34:15;0.80;99.90
5806;DHT22;2929;50.810;8.342;2023-03-01T09:36:49;0.80;99.90
5806;DHT22;2929;50.810;8.342;2023-03-01T09:39:17;0.90;99.90
5806;DHT22;2929;50.810;8.342;2023-03-01T09:41:49;0.90;99.90
5806;DHT22;2929;50.810;8.342;2023-03-01T09:44:27;1.00;99.90
5806;DHT22;2929;50.810;8.342;2023-03-01T09:46:55;1.00;99.90
5806;DHT22;2929;50.810;8.342;2023-03-01T09:49:25;1.10;99.90
5806;DHT22;2929;50.810;8.342;2023-03-01T09:51:58;1.20;99.90
5806;DHT22;2929;50.810;8.342;2023-03-01T09:54:27;1.40;99.90
5806;DHT22;2929;50.810;8.342;2023-03-01T09:57:11;1.50;99.90
5806;DHT22;2929;50.810;8.342;2023-03-01T09:59:51;1.50;99.90
5806;DHT22;2929;50.810;8.342;2023-03-01T10:02:27;1.60;99.90
5806;DHT22;2929;50.810;8.342;2023-03-01T10:05:06;1.70;99.90
5806;DHT22;2929;50.810;8.342;2023-03-01T10:07:40;1.80;99.90
5806;DHT22;2929;50.810;8.342;2023-03-01T10:10:21;1.90;99.90
5806;DHT22;2929;50.810;8.342;2023-03-01T10:12:50;2.00;99.90
5806;DHT22;2929;50.810;8.342;2023-03-01T10:15:55;2.10;99.90
5806;DHT22;2929;50.810;8.342;2023-03-01T10:18:25;2.10;99.90
5806;DHT22;2929;50.810;8.342;2023-03-01T10:21:22;2.20;99.90
5806;DHT22;2929;50.810;8.342;2023-03-01T10:23:50;2.20;99.90
5806;DHT22;2929;50.810;8.342;2023-03-01T10:26:48;2.40;99.90
5806;DHT22;2929;50.810;8.342;2023-03-01T10:29:18;2.70;99.90
5806;DHT22;2929;50.810;8.342;2023-03-01T10:31:49;2.70;99.90
5806;DHT22;2929;50.810;8.342;2023-03-01T10:34:18;2.80;99.90
5806;DHT22;2929;50.810;8.342;2023-03-01T10:36:49;2.80;99.90
5806;DHT22;2929;50.810;8.342;2023-03-01T10:39:19;2.90;99.90
5806;DHT22;2929;50.810;8.342;2023-03-01T10:41:58;3.10;99.90
5806;DHT22;2929;50.810;8.342;2023-03-01T10:44:38;3.40;99.90
5806;DHT22;2929;50.810;8.342;2023-03-01T10:47:14;3.60;99.90
5806;DHT22;2929;50.810;8.342;2023-03-01T10:49:55;3.80;99.90
5806;DHT22;2929;50.810;8.342;2023-03-01T10:52:25;4.00;99.90
5806;DHT22;2929;50.810;8.342;2023-03-01T10:54:55;4.20;99.90
5806;DHT22;2929;50.810;8.342;2023-03-01T10:57:30;4.10;99.90
5806;DHT22;2929;50.810;8.342;2023-03-01T11:03:03;4.60;99.90
5806;DHT22;2929;50.810;8.342;2023-03-01T11:05:36;4.80;99.90
5806;DHT22;2929;50.810;8.342;2023-03-01T11:08:03;4.90;99.90
5806;DHT22;2929;50.810;8.342;2023-03-01T11:10:32;5.10;99.90
5806;DHT22;2929;50.810;8.342;2023-03-01T11:13:09;5.20;99.90
5806;DHT22;2929;50.810;8.342;2023-03-01T11:15:40;5.30;99.90
5806;DHT22;2929;50.810;8.342;2023-03-01T11:18:19;5.50;99.90
5806;DHT22;2929;50.810;8.342;2023-03-01T11:20:48;6.00;99.90
5806;DHT22;2929;50.810;8.342;2023-03-01T11:23:17;6.10;99.60
5806;DHT22;2929;50.810;8.342;2023-03-01T11:25:49;6.10;97.90
5806;DHT22;2929;50.810;8.342;2023-03-01T11:28:21;6.10;97.90
5806;DHT22;2929;50.810;8.342;2023-03-01T11:30:51;6.40;99.30
5806;DHT22;2929;50.810;8.342;2023-03-01T11:33:32;6.80;98.10
5806;DHT22;2929;50.810;8.342;2023-03-01T11:36:03;7.00;96.40
5806;DHT22;2929;50.810;8.342;2023-03-01T11:38:34;7.10;96.60
5806;DHT22;2929;50.810;8.342;2023-03-01T11:41:06;7.20;97.10
5806;DHT22;2929;50.810;8.342;2023-03-01T11:43:38;7.40;94.30
5806;DHT22;2929;50.810;8.342;2023-03-01T11:46:34;7.30;95.10
5806;DHT22;2929;50.810;8.342;2023-03-01T11:49:14;7.30;94.00
5806;DHT22;2929;50.810;8.342;2023-03-01T11:51:51;7.50;94.10
5806;DHT22;2929;50.810;8.342;2023-03-01T11:54:30;7.70;93.30
5806;DHT22;2929;50.810;8.342;2023-03-01T11:57:01;7.60;92.70
5806;DHT22;2929;50.810;8.342;2023-03-01T11:59:53;7.40;91.80
5806;DHT22;2929;50.810;8.342;2023-03-01T12:02:52;7.70;91.40
5806;DHT22;2929;50.810;8.342;2023-03-01T12:05:49;7.80;92.50
5806;DHT22;2929;50.810;8.342;2023-03-01T12:08:25;8.00;91.00
5806;DHT22;2929;50.810;8.342;2023-03-01T12:11:01;8.70;92.20
5806;DHT22;2929;50.810;8.342;2023-03-01T12:13:48;8.70;90.20
5806;DHT22;2929;50.810;8.342;2023-03-01T12:16:28;8.90;90.60
5806;DHT22;2929;50.810;8.342;2023-03-01T12:19:13;8.60;89.10
5806;DHT22;2929;50.810;8.342;2023-03-01T12:21:57;8.30;86.90
5806;DHT22;2929;50.810;8.342;2023-03-01T12:24:47;8.80;89.90
5806;DHT22;2929;50.810;8.342;2023-03-01T12:27:29;9.00;87.80
5806;DHT22;2929;50.810;8.342;2023-03-01T12:30:16;9.30;87.40
5806;DHT22;2929;50.810;8.342;2023-03-01T12:32:53;9.40;84.90
5806;DHT22;2929;50.810;8.342;2023-03-01T12:35:48;9.60;84.40
5806;DHT22;2929;50.810;8.342;2023-03-01T12:38:32;9.40;81.40
